Scio, Michigan
Current Conditions -  °F | °C
As of 3:53 PM on Sunday 21 Dec 2014 (Local Time) from KARB Reporting Station
Overcast Overcast  
Wind Chill: 29°   Ceiling: 5500
Heat Index: 33°   Visibility: 9mi
Dew Point: 25°   Wind: 5mph
Humidity: 72%   Direction: 180°S
Pressure: 30.22"   Gusts: NA
Location:  42.3528°N, 83.8974°W
Report Text: KARB 212053Z 18004KT 9SM OVC055 01/M04 A3022 RMK AO2 SLP242 T00061039 55011
Loading
Personal Weather Stations






























Interactive Weather Map New forecast layout! Learn more

10-Day Weather Forecast

Advertisements
Track Severe Weather on mobile